Terminal Aerodrome Forecast
Issued by NWS

Home | Current Version | Previous Version | Text Only | Print | Product List | Glossary On
Versions: 1 2 3 4 5 6 7 8 9 10 11 12 13
000
FTUS43 KGLD 200520
TAFMCK
TAF
KMCK 200520Z 2006/2106 18012G18KT P6SM BKN200 WS020/22040KT
     FM201000 24010G16KT P6SM SCT200
     FM201200 29010G16KT P6SM SCT200 WS020/33045KT
     FM201500 33016G26KT P6SM SCT200
     FM202200 30012KT P6SM FEW250
     FM210200 23004KT P6SM SKC=

USA.gov is the U.S. government's official web portal to all federal, state and local government web resources and services.